createdAt,value
2023-02-05T00:01:45.906Z,103198.88
2023-02-05T00:04:16.053Z,103190.94
2023-02-05T00:06:46.118Z,103186.38
2023-02-05T00:09:16.248Z,103194.19
2023-02-05T00:11:46.537Z,103192.09
2023-02-05T00:14:16.718Z,103187.28
2023-02-05T00:16:50.226Z,103183.88
2023-02-05T00:19:20.861Z,103176.81
2023-02-05T00:21:50.918Z,103168.34
2023-02-05T00:24:21.272Z,103165.34
2023-02-05T00:26:51.363Z,103173.41
2023-02-05T00:29:21.642Z,103174.75
2023-02-05T00:31:54.522Z,103172.41
2023-02-05T00:34:25.100Z,103177.97
2023-02-05T00:36:56.296Z,103171.22
2023-02-05T00:39:26.421Z,103164.66
2023-02-05T00:41:56.613Z,103158.16
2023-02-05T00:44:28.006Z,103148.25
2023-02-05T00:47:00.934Z,103141.97
2023-02-05T00:49:31.682Z,103143.53
2023-02-05T00:52:02.126Z,103141.06
2023-02-05T00:54:33.454Z,103125.28
2023-02-05T00:57:03.567Z,103121.88
2023-02-05T00:59:33.578Z,103118.50
2023-02-05T01:02:06.373Z,103114.19
2023-02-05T01:04:36.454Z,103112.34
2023-02-05T01:07:06.841Z,103123.56
2023-02-05T01:09:37.051Z,103113.66
2023-02-05T01:12:07.505Z,103109.13
2023-02-05T01:14:37.566Z,103099.81
2023-02-05T01:17:10.360Z,103092.13
2023-02-05T01:19:40.667Z,103094.63
2023-02-05T01:22:11.618Z,103093.69
2023-02-05T01:24:41.667Z,103086.50
2023-02-05T01:27:11.843Z,103071.66
2023-02-05T01:29:42.419Z,103064.88
2023-02-05T01:32:15.236Z,103064.88
2023-02-05T01:34:45.256Z,103069.84
2023-02-05T01:37:15.784Z,103069.31
2023-02-05T01:39:45.954Z,103071.13
2023-02-05T01:42:20.744Z,103076.75
2023-02-05T01:45:05.710Z,103082.34
2023-02-05T01:47:38.379Z,103079.63
2023-02-05T01:50:08.734Z,103057.56
2023-02-05T01:52:38.917Z,103047.66
2023-02-05T01:55:10.300Z,103043.63
2023-02-05T01:57:40.832Z,103044.66
2023-02-05T02:00:12.059Z,103038.53
2023-02-05T02:02:47.753Z,103031.75
2023-02-05T02:05:18.914Z,103027.69
2023-02-05T02:07:49.241Z,103029.94
2023-02-05T02:10:20.775Z,103033.72
2023-02-05T02:12:51.500Z,103029.13
2023-02-05T02:15:24.076Z,103021.69
2023-02-05T02:18:19.732Z,103026.66
2023-02-05T02:20:51.542Z,103029.81
2023-02-05T02:23:27.524Z,103027.59
2023-02-05T02:26:11.606Z,103014.00
2023-02-05T02:28:46.620Z,103016.50
2023-02-05T02:31:20.506Z,103010.38
2023-02-05T02:33:53.386Z,103012.16
2023-02-05T02:36:28.046Z,103000.44
2023-02-05T02:39:02.832Z,102997.31
2023-02-05T02:41:34.275Z,102991.72
2023-02-05T02:44:12.163Z,102989.88
2023-02-05T02:46:44.470Z,102978.81
2023-02-05T02:49:17.651Z,102966.44
2023-02-05T02:51:48.884Z,102965.50
2023-02-05T02:54:20.777Z,102979.69
2023-02-05T02:56:51.721Z,103005.41
2023-02-05T02:59:26.507Z,102992.34
2023-02-05T03:01:58.191Z,102992.50
2023-02-05T03:04:31.180Z,102993.13
2023-02-05T03:07:04.744Z,102999.75
2023-02-05T03:09:37.836Z,102990.00
2023-02-05T03:12:08.126Z,102992.59
2023-02-05T03:14:41.480Z,102994.41
2023-02-05T03:17:18.630Z,102991.81
2023-02-05T03:19:51.642Z,102987.22
2023-02-05T03:22:21.796Z,102973.94
2023-02-05T03:24:53.484Z,102970.00
2023-02-05T03:27:24.339Z,102983.69
2023-02-05T03:29:57.984Z,102983.44
2023-02-05T03:32:39.309Z,102977.31
2023-02-05T03:35:19.488Z,102973.03
2023-02-05T03:37:58.697Z,102987.22
2023-02-05T03:40:34.124Z,102989.56
2023-02-05T03:43:10.251Z,102979.13
2023-02-05T03:45:52.859Z,102976.38
2023-02-05T03:48:32.129Z,102968.53
2023-02-05T03:51:05.592Z,102956.91
2023-02-05T03:53:40.286Z,102948.16
2023-02-05T03:56:13.810Z,102957.41
2023-02-05T03:58:45.580Z,102962.34
2023-02-05T04:01:18.516Z,102948.66
2023-02-05T04:03:49.865Z,102936.00
2023-02-05T04:06:20.236Z,102937.16
2023-02-05T04:08:53.538Z,102928.31
2023-02-05T04:11:24.413Z,102937.31
2023-02-05T04:13:54.711Z,102933.91
2023-02-05T04:16:27.723Z,102939.78
2023-02-05T04:18:58.373Z,102940.47
2023-02-05T04:21:30.338Z,102935.66
2023-02-05T04:24:00.796Z,102943.72
2023-02-05T04:26:31.509Z,102940.06
2023-02-05T04:29:06.009Z,102936.53
2023-02-05T04:31:44.854Z,102934.84
2023-02-05T04:34:15.690Z,102944.59
2023-02-05T04:36:45.992Z,102940.66
2023-02-05T04:39:16.549Z,102931.50
2023-02-05T04:41:46.842Z,102941.03
2023-02-05T04:44:17.002Z,102941.94
2023-02-05T04:46:50.000Z,102934.06
2023-02-05T04:49:20.049Z,102924.81
2023-02-05T04:51:50.079Z,102920.78
2023-02-05T04:54:20.463Z,102916.22
2023-02-05T04:56:50.673Z,102913.34
2023-02-05T04:59:20.840Z,102913.59
2023-02-05T05:01:53.526Z,102907.31
2023-02-05T05:04:23.934Z,102908.72
2023-02-05T05:06:54.356Z,102905.06
2023-02-05T05:09:25.490Z,102911.59
2023-02-05T05:11:56.273Z,102912.75
2023-02-05T05:14:26.375Z,102917.97
2023-02-05T05:16:59.307Z,102919.66
2023-02-05T05:19:29.410Z,102920.84
2023-02-05T05:21:59.828Z,102917.91
2023-02-05T05:24:30.024Z,102909.25
2023-02-05T05:27:00.105Z,102904.13
2023-02-05T05:29:30.396Z,102904.41
2023-02-05T05:32:03.442Z,102910.25
2023-02-05T05:34:33.615Z,102909.19
2023-02-05T05:37:03.722Z,102907.22
2023-02-05T05:39:46.386Z,102895.47
2023-02-05T05:42:28.941Z,102890.00
2023-02-05T05:44:59.392Z,102895.22
2023-02-05T05:47:32.027Z,102897.94
2023-02-05T05:50:02.064Z,102894.31
2023-02-05T05:52:32.910Z,102887.78
2023-02-05T05:55:03.064Z,102873.28
2023-02-05T05:57:33.834Z,102860.88
2023-02-05T06:00:04.572Z,102848.22
2023-02-05T06:02:45.773Z,102840.53
2023-02-05T06:05:15.972Z,102831.75
2023-02-05T06:07:46.314Z,102820.03
2023-02-05T06:10:16.421Z,102796.09
2023-02-05T06:12:46.850Z,102798.50
2023-02-05T06:15:16.954Z,102819.50
2023-02-05T06:17:49.867Z,102825.38
2023-02-05T06:20:20.031Z,102837.41
2023-02-05T06:22:50.147Z,102854.69
2023-02-05T06:25:20.446Z,102853.94
2023-02-05T06:27:50.558Z,102843.00
2023-02-05T06:30:20.799Z,102847.50
2023-02-05T06:32:53.661Z,102838.22
2023-02-05T06:35:24.160Z,102846.34
2023-02-05T06:37:54.201Z,102843.69
2023-02-05T06:40:25.982Z,102838.91
2023-02-05T06:42:56.084Z,102852.94
2023-02-05T06:45:26.079Z,102849.47
2023-02-05T06:47:59.173Z,102842.28
2023-02-05T06:50:29.270Z,102845.66
2023-02-05T06:52:59.714Z,102827.13
2023-02-05T06:55:29.755Z,102819.66
2023-02-05T06:57:59.812Z,102829.78
2023-02-05T07:00:32.358Z,102821.84
2023-02-05T07:03:08.454Z,102832.69
2023-02-05T07:05:38.654Z,102840.53
2023-02-05T07:08:09.359Z,102840.78
2023-02-05T07:10:39.560Z,102836.09
2023-02-05T07:13:09.818Z,102815.94
2023-02-05T07:15:40.286Z,102819.50
2023-02-05T07:18:13.024Z,102817.94
2023-02-05T07:20:43.252Z,102823.84
2023-02-05T07:23:13.333Z,102817.94
2023-02-05T07:25:43.362Z,102828.13
2023-02-05T07:28:13.651Z,102820.28
2023-02-05T07:30:43.864Z,102820.50
2023-02-05T07:33:16.677Z,102819.19
2023-02-05T07:35:46.709Z,102825.31
2023-02-05T07:38:16.966Z,102831.91
2023-02-05T07:40:47.243Z,102829.56
2023-02-05T07:43:17.433Z,102813.63
2023-02-05T07:45:47.928Z,102812.03
2023-02-05T07:48:23.974Z,102807.97
2023-02-05T07:50:54.563Z,102809.38
2023-02-05T07:53:24.882Z,102811.91
2023-02-05T07:55:55.234Z,102796.84
2023-02-05T07:58:25.578Z,102796.91
2023-02-05T08:00:55.769Z,102796.91
2023-02-05T08:03:28.932Z,102794.94
2023-02-05T08:05:59.334Z,102802.03
2023-02-05T08:08:29.492Z,102791.28
2023-02-05T08:11:00.788Z,102793.59
2023-02-05T08:13:31.068Z,102796.63
2023-02-05T08:16:01.354Z,102800.06
2023-02-05T08:18:34.018Z,102804.88
2023-02-05T08:21:04.417Z,102803.72
2023-02-05T08:23:34.547Z,102817.78
2023-02-05T08:26:04.863Z,102812.03
2023-02-05T08:28:34.980Z,102813.78
2023-02-05T08:31:05.107Z,102812.88
2023-02-05T08:33:37.880Z,102817.88
2023-02-05T08:36:10.683Z,102816.13
2023-02-05T08:38:41.212Z,102813.03
2023-02-05T08:41:12.889Z,102817.84
2023-02-05T08:43:44.464Z,102814.19
2023-02-05T08:46:15.209Z,102807.19
2023-02-05T08:48:48.703Z,102809.50
2023-02-05T08:51:19.931Z,102805.50
2023-02-05T08:53:50.073Z,102807.97
2023-02-05T08:56:20.511Z,102803.00
2023-02-05T08:58:50.618Z,102803.22
2023-02-05T09:01:21.972Z,102804.63
2023-02-05T09:03:54.793Z,102807.88
2023-02-05T09:06:25.046Z,102806.97
2023-02-05T09:08:55.386Z,102809.41
2023-02-05T09:11:26.827Z,102809.41
2023-02-05T09:13:56.956Z,102813.72
2023-02-05T09:16:27.567Z,102811.63
2023-02-05T09:19:01.311Z,102811.91
2023-02-05T09:21:31.546Z,102808.69
2023-02-05T09:24:02.222Z,102801.63
2023-02-05T09:26:32.299Z,102802.19
2023-02-05T09:29:02.388Z,102804.84
2023-02-05T09:31:32.560Z,102804.28
2023-02-05T09:34:07.229Z,102812.81
2023-02-05T09:36:37.625Z,102812.56
2023-02-05T09:39:15.996Z,102812.63
2023-02-05T09:41:57.252Z,102807.50
2023-02-05T09:44:34.597Z,102811.38
2023-02-05T09:47:07.668Z,102808.84
2023-02-05T09:49:42.116Z,102816.13
2023-02-05T09:52:18.296Z,102822.50
2023-02-05T09:54:51.259Z,102819.81
2023-02-05T09:57:26.914Z,102823.47
2023-02-05T09:59:57.062Z,102818.06
2023-02-05T10:02:31.929Z,102820.00
2023-02-05T10:05:05.526Z,102823.34
2023-02-05T10:07:40.984Z,102815.16
2023-02-05T10:10:26.315Z,102818.75
2023-02-05T10:13:18.823Z,102817.59
2023-02-05T10:15:58.267Z,102825.31
2023-02-05T10:18:30.306Z,102819.72
2023-02-05T10:21:10.335Z,102823.13
2023-02-05T10:23:50.115Z,102825.84
2023-02-05T10:26:20.833Z,102823.00
2023-02-05T10:29:03.801Z,102822.06
2023-02-05T10:31:42.300Z,102826.31
2023-02-05T10:34:19.380Z,102826.63
2023-02-05T10:36:55.003Z,102827.09
2023-02-05T10:39:27.984Z,102828.34
2023-02-05T10:42:02.114Z,102829.50
2023-02-05T10:44:34.110Z,102831.06
2023-02-05T10:47:07.960Z,102823.47
2023-02-05T10:49:46.188Z,102832.72
2023-02-05T10:52:19.556Z,102836.56
2023-02-05T10:54:50.972Z,102831.75
2023-02-05T10:57:22.497Z,102833.56
2023-02-05T10:59:55.411Z,102833.31
2023-02-05T11:02:29.383Z,102828.34
2023-02-05T11:05:02.669Z,102836.31
2023-02-05T11:07:38.520Z,102831.38
2023-02-05T11:13:24.288Z,102833.41
2023-02-05T11:15:58.338Z,102839.16
2023-02-05T11:18:30.539Z,102843.66
2023-02-05T11:21:02.862Z,102843.84
2023-02-05T11:23:39.891Z,102841.59
2023-02-05T11:26:12.347Z,102847.38
2023-02-05T11:28:42.703Z,102840.88
2023-02-05T11:31:24.192Z,102848.91
2023-02-05T11:33:54.967Z,102851.28
2023-02-05T11:36:26.741Z,102852.31
2023-02-05T11:39:00.144Z,102853.94
2023-02-05T11:41:31.365Z,102850.56
2023-02-05T11:44:02.504Z,102856.44
2023-02-05T11:46:35.486Z,102861.81
2023-02-05T11:49:06.228Z,102865.91
2023-02-05T11:51:42.728Z,102873.50
2023-02-05T11:54:20.601Z,102869.56
2023-02-05T11:57:05.178Z,102869.53
2023-02-05T11:59:35.865Z,102873.72
2023-02-05T12:02:22.125Z,102878.91
2023-02-05T12:04:52.662Z,102877.25
2023-02-05T12:07:24.750Z,102889.44
2023-02-05T12:09:59.908Z,102899.81
2023-02-05T12:12:33.009Z,102899.56
2023-02-05T12:15:10.364Z,102907.25
2023-02-05T12:17:42.674Z,102913.91
2023-02-05T12:20:23.100Z,102911.09
2023-02-05T12:23:08.004Z,102912.56
2023-02-05T12:25:44.470Z,102920.00
2023-02-05T12:28:23.095Z,102915.44
2023-02-05T12:31:00.209Z,102911.78
2023-02-05T12:33:39.653Z,102902.34
2023-02-05T12:36:17.842Z,102903.75
2023-02-05T12:38:53.741Z,102911.97
2023-02-05T12:41:32.228Z,102898.19
2023-02-05T12:44:11.657Z,102890.53
2023-02-05T12:46:50.515Z,102881.63
2023-02-05T12:49:30.247Z,102867.84
2023-02-05T12:52:06.950Z,102863.97
2023-02-05T12:54:55.092Z,102857.66
2023-02-05T12:57:29.670Z,102854.47
2023-02-05T13:00:05.981Z,102850.88
2023-02-05T13:02:38.866Z,102843.84
2023-02-05T13:05:18.667Z,102850.94
2023-02-05T13:07:50.438Z,102861.19
2023-02-05T13:10:23.904Z,102862.63
2023-02-05T13:13:00.720Z,102872.66
2023-02-05T13:15:36.074Z,102876.75
2023-02-05T13:18:09.276Z,102871.56
2023-02-05T13:20:53.989Z,102880.38
2023-02-05T13:23:36.760Z,102879.44
2023-02-05T13:26:20.470Z,102892.66
2023-02-05T13:28:55.179Z,102882.72
2023-02-05T13:31:28.539Z,102883.75
2023-02-05T13:34:00.400Z,102879.75
2023-02-05T13:36:45.368Z,102887.53
2023-02-05T13:39:34.610Z,102882.53
2023-02-05T13:42:19.685Z,102890.22
2023-02-05T13:45:03.064Z,102896.53
2023-02-05T13:47:47.861Z,102904.13
2023-02-05T13:50:37.556Z,102905.28
2023-02-05T13:53:26.627Z,102916.31
2023-02-05T13:56:11.506Z,102927.53
2023-02-05T13:58:45.800Z,102924.94
2023-02-05T14:01:23.037Z,102932.03
2023-02-05T14:03:58.946Z,102926.31
2023-02-05T14:06:33.518Z,102927.53
2023-02-05T14:09:05.745Z,102933.72
2023-02-05T14:11:55.900Z,102922.44
2023-02-05T14:14:28.042Z,102935.19
2023-02-05T14:17:01.232Z,102939.25
2023-02-05T14:19:46.292Z,102944.69
2023-02-05T14:22:36.274Z,102955.59
2023-02-05T14:25:06.643Z,102955.31
2023-02-05T14:27:52.172Z,102960.78
2023-02-05T14:30:37.784Z,102959.19
2023-02-05T14:33:26.482Z,102956.00
2023-02-05T14:36:01.115Z,102948.34
2023-02-05T14:38:34.043Z,102954.97
2023-02-05T14:41:05.407Z,102970.59
2023-02-05T14:43:37.353Z,102973.09
2023-02-05T14:46:09.282Z,102976.94
2023-02-05T14:48:43.758Z,102983.94
2023-02-05T14:51:23.773Z,102980.50
2023-02-05T14:53:57.964Z,102995.88
2023-02-05T14:56:31.930Z,102990.84
2023-02-05T14:59:05.274Z,102989.63
2023-02-05T15:01:46.832Z,102985.47
2023-02-05T15:04:23.717Z,102983.13
2023-02-05T15:06:56.648Z,102970.88
2023-02-05T15:09:34.851Z,102985.41
2023-02-05T15:12:20.064Z,102982.13
2023-02-05T15:14:54.704Z,102988.47
2023-02-05T15:17:39.750Z,102992.13
2023-02-05T15:20:19.545Z,102997.56
2023-02-05T15:22:54.019Z,103014.19
2023-02-05T15:25:30.725Z,103016.81
2023-02-05T15:28:04.124Z,103022.38
2023-02-05T15:30:36.351Z,103030.19
2023-02-05T15:33:08.583Z,103031.34
2023-02-05T15:35:40.306Z,103042.72
2023-02-05T15:38:22.789Z,103043.63
2023-02-05T15:40:53.500Z,103040.72
2023-02-05T15:43:24.823Z,103056.13
2023-02-05T15:45:55.470Z,103047.94
2023-02-05T15:48:27.921Z,103046.31
2023-02-05T15:50:59.208Z,103036.06
2023-02-05T15:53:39.143Z,103033.34
2023-02-05T15:56:11.407Z,103038.97
2023-02-05T15:58:43.463Z,103052.81
2023-02-05T16:01:13.659Z,103047.19
2023-02-05T16:03:43.724Z,103052.59
2023-02-05T16:06:21.282Z,103055.22
2023-02-05T16:08:55.439Z,103056.63
2023-02-05T16:11:29.776Z,103065.16
2023-02-05T16:14:07.104Z,103076.78
2023-02-05T16:16:39.883Z,103078.88
2023-02-05T16:19:14.037Z,103086.41
2023-02-05T16:21:46.364Z,103074.59
2023-02-05T16:24:24.969Z,103086.41
2023-02-05T16:26:57.317Z,103084.69
2023-02-05T16:29:39.022Z,103094.09
2023-02-05T16:32:19.204Z,103088.13
2023-02-05T16:34:49.554Z,103087.03
2023-02-05T16:37:21.094Z,103090.16
2023-02-05T16:39:57.756Z,103096.19
2023-02-05T16:42:38.078Z,103106.22
2023-02-05T16:45:21.657Z,103100.81
2023-02-05T16:48:13.126Z,103099.50
2023-02-05T16:50:45.599Z,103111.44
2023-02-05T16:53:17.699Z,103108.09
2023-02-05T16:55:51.174Z,103114.16
2023-02-05T16:58:23.512Z,103111.09
2023-02-05T17:00:58.105Z,103120.88
2023-02-05T17:03:29.159Z,103118.56
2023-02-05T17:06:00.561Z,103123.72
2023-02-05T17:08:33.619Z,103114.09
2023-02-05T17:11:09.021Z,103104.81
2023-02-05T17:13:43.320Z,103119.31
2023-02-05T17:16:37.585Z,103127.34
2023-02-05T17:19:08.376Z,103128.63
2023-02-05T17:21:39.430Z,103133.03
2023-02-05T17:24:10.935Z,103140.41
2023-02-05T17:26:46.338Z,103151.19
2023-02-05T17:29:17.547Z,103145.88
2023-02-05T17:31:47.732Z,103142.28
2023-02-05T17:34:17.877Z,103150.94
2023-02-05T17:36:48.216Z,103162.53
2023-02-05T17:39:18.255Z,103164.59
2023-02-05T17:42:08.498Z,103168.91
2023-02-05T17:44:39.116Z,103171.41
2023-02-05T17:47:09.452Z,103175.91
2023-02-05T17:49:39.596Z,103176.06
2023-02-05T17:52:09.675Z,103177.16
2023-02-05T17:54:39.945Z,103182.38
2023-02-05T17:57:17.780Z,103177.47
2023-02-05T17:59:48.053Z,103188.84
2023-02-05T18:02:18.651Z,103203.31
2023-02-05T18:04:48.777Z,103204.13
2023-02-05T18:07:22.525Z,103212.03
2023-02-05T18:09:52.645Z,103209.31
2023-02-05T18:12:25.672Z,103203.88
2023-02-05T18:14:55.868Z,103203.63
2023-02-05T18:17:26.144Z,103206.13
2023-02-05T18:19:56.289Z,103206.81
2023-02-05T18:22:26.287Z,103220.84
2023-02-05T18:24:56.401Z,103228.72
2023-02-05T18:27:29.106Z,103231.38
2023-02-05T18:29:59.510Z,103228.22
2023-02-05T18:32:29.928Z,103231.38
2023-02-05T18:35:00.064Z,103233.72
2023-02-05T18:37:30.110Z,103228.31
2023-02-05T18:40:00.200Z,103234.03
2023-02-05T18:42:32.914Z,103231.72
2023-02-05T18:45:03.205Z,103243.50
2023-02-05T18:47:33.689Z,103245.66
2023-02-05T18:50:03.802Z,103245.84
2023-02-05T18:52:34.049Z,103250.81
2023-02-05T18:55:04.125Z,103252.78
2023-02-05T18:57:36.788Z,103255.63
2023-02-05T19:00:07.518Z,103254.03
2023-02-05T19:02:37.689Z,103248.63
2023-02-05T19:05:08.458Z,103252.84
2023-02-05T19:07:39.155Z,103245.50
2023-02-05T19:10:09.580Z,103246.84
2023-02-05T19:12:42.273Z,103244.06
2023-02-05T19:15:12.583Z,103259.91
2023-02-05T19:17:42.714Z,103261.78
2023-02-05T19:20:13.246Z,103263.34
2023-02-05T19:22:43.439Z,103275.38
2023-02-05T19:25:13.647Z,103274.03
2023-02-05T19:27:46.420Z,103286.47
2023-02-05T19:30:16.860Z,103280.34
2023-02-05T19:32:47.099Z,103284.66
2023-02-05T19:35:17.341Z,103293.94
2023-02-05T19:37:47.536Z,103309.56
2023-02-05T19:40:18.995Z,103299.84
2023-02-05T19:42:51.760Z,103310.72
2023-02-05T19:45:23.125Z,103320.34
2023-02-05T19:47:53.279Z,103320.06
2023-02-05T19:50:23.361Z,103320.97
2023-02-05T19:52:55.097Z,103318.41
2023-02-05T19:55:25.574Z,103322.75
2023-02-05T19:57:58.291Z,103333.59
2023-02-05T20:00:28.332Z,103335.91
2023-02-05T20:02:58.864Z,103337.84
2023-02-05T20:05:28.976Z,103340.75
2023-02-05T20:07:59.189Z,103340.34
2023-02-05T20:10:29.399Z,103338.59
2023-02-05T20:13:02.449Z,103336.09
2023-02-05T20:15:32.960Z,103339.75
2023-02-05T20:18:03.085Z,103334.78
2023-02-05T20:20:34.021Z,103339.75
2023-02-05T20:23:04.244Z,103338.88
2023-02-05T20:25:34.373Z,103330.72
2023-02-05T20:28:07.467Z,103336.78
2023-02-05T20:30:50.176Z,103332.03
2023-02-05T20:33:20.354Z,103334.28
2023-02-05T20:35:50.421Z,103328.78
2023-02-05T20:38:20.544Z,103330.16
2023-02-05T20:40:50.579Z,103338.94
2023-02-05T20:43:23.151Z,103346.56
2023-02-05T20:45:53.227Z,103341.06
2023-02-05T20:48:23.465Z,103337.38
2023-02-05T20:50:53.679Z,103335.44
2023-02-05T20:53:23.777Z,103337.09
2023-02-05T20:55:53.948Z,103336.44
2023-02-05T20:58:26.764Z,103352.78
2023-02-05T21:00:57.178Z,103350.94
2023-02-05T21:03:27.445Z,103346.91
2023-02-05T21:05:59.695Z,103346.91
2023-02-05T21:08:29.883Z,103350.47
2023-02-05T21:10:59.932Z,103341.16
2023-02-05T21:13:35.599Z,103338.50
2023-02-05T21:16:06.542Z,103342.59
2023-02-05T21:18:38.191Z,103339.81
2023-02-05T21:21:08.972Z,103347.81
2023-02-05T21:23:39.081Z,103344.00
2023-02-05T21:26:09.703Z,103346.91
2023-02-05T21:28:42.364Z,103343.22
2023-02-05T21:31:12.629Z,103350.22
2023-02-05T21:33:42.930Z,103350.84
2023-02-05T21:36:14.076Z,103347.03
2023-02-05T21:38:44.971Z,103358.03
2023-02-05T21:41:16.567Z,103350.41
2023-02-05T21:43:50.314Z,103362.94
2023-02-05T21:46:21.310Z,103351.97
2023-02-05T21:48:52.044Z,103343.91
2023-02-05T21:51:23.733Z,103360.34
2023-02-05T21:53:57.338Z,103361.78
2023-02-05T21:56:29.268Z,103373.28
2023-02-05T21:59:02.167Z,103373.28
2023-02-05T22:01:33.713Z,103380.53
2023-02-05T22:04:04.820Z,103386.41
2023-02-05T22:06:36.263Z,103387.31
2023-02-05T22:09:08.419Z,103382.47
2023-02-05T22:11:39.523Z,103387.44
2023-02-05T22:14:13.027Z,103396.22
2023-02-05T22:16:43.623Z,103399.75
2023-02-05T22:19:13.980Z,103398.63
2023-02-05T22:21:45.406Z,103397.16
2023-02-05T22:24:17.306Z,103403.38
2023-02-05T22:26:48.241Z,103405.63
2023-02-05T22:29:22.238Z,103402.47
2023-02-05T22:31:54.124Z,103401.16
2023-02-05T22:34:24.596Z,103411.88
2023-02-05T22:36:54.611Z,103404.41
2023-02-05T22:39:25.018Z,103413.44
2023-02-05T22:41:55.316Z,103415.63
2023-02-05T22:44:30.035Z,103406.69
2023-02-05T22:47:00.071Z,103400.22
2023-02-05T22:49:30.150Z,103400.22
2023-02-05T22:52:00.282Z,103399.53
2023-02-05T22:54:30.644Z,103400.22
2023-02-05T22:57:00.852Z,103397.06
2023-02-05T22:59:33.663Z,103377.66
2023-02-05T23:02:03.827Z,103381.03
2023-02-05T23:04:33.996Z,103388.41
2023-02-05T23:07:04.042Z,103385.19
2023-02-05T23:09:34.556Z,103386.13
2023-02-05T23:12:07.120Z,103386.91
2023-02-05T23:14:39.774Z,103388.91
2023-02-05T23:17:09.855Z,103385.09
2023-02-05T23:19:39.999Z,103382.84
2023-02-05T23:22:11.088Z,103388.75
2023-02-05T23:24:41.168Z,103386.28
2023-02-05T23:27:11.299Z,103382.19
2023-02-05T23:29:44.038Z,103383.78
2023-02-05T23:32:15.114Z,103391.88
2023-02-05T23:35:00.228Z,103402.94
2023-02-05T23:37:30.445Z,103405.66
2023-02-05T23:40:00.697Z,103401.38
2023-02-05T23:42:30.956Z,103411.22
2023-02-05T23:45:03.674Z,103411.63
2023-02-05T23:47:34.088Z,103415.66
2023-02-05T23:50:04.672Z,103414.59
2023-02-05T23:52:35.106Z,103410.69
2023-02-05T23:55:05.133Z,103408.78
2023-02-05T23:57:35.298Z,103404.25
